createdAt,value
2022-08-09T00:00:44.485Z,0.40
2022-08-09T00:01:54.488Z,0.40
2022-08-09T00:02:57.383Z,0.35
2022-08-09T00:04:11.059Z,0.32
2022-08-09T00:06:15.901Z,0.40
2022-08-09T00:06:45.431Z,0.40
2022-08-09T00:07:50.010Z,0.40
2022-08-09T00:08:57.567Z,0.40
2022-08-09T00:10:00.630Z,0.40
2022-08-09T00:11:05.791Z,0.40
2022-08-09T00:12:22.556Z,0.40
2022-08-09T00:13:24.863Z,0.30
2022-08-09T00:14:36.308Z,0.40
2022-08-09T00:15:57.953Z,0.30
2022-08-09T00:17:03.264Z,0.30
2022-08-09T00:18:11.415Z,0.30
2022-08-09T00:19:14.537Z,0.30
2022-08-09T00:20:21.504Z,0.30
2022-08-09T00:21:23.868Z,0.30
2022-08-09T00:22:31.768Z,0.30
2022-08-09T00:23:57.011Z,0.30
2022-08-09T00:25:03.899Z,0.30
2022-08-09T00:26:11.023Z,0.30
2022-08-09T00:27:14.282Z,0.30
2022-08-09T00:28:16.293Z,0.30
2022-08-09T00:29:39.165Z,0.30
2022-08-09T00:30:42.295Z,0.30
2022-08-09T00:32:00.027Z,0.30
2022-08-09T00:33:03.904Z,0.30
2022-08-09T00:34:07.389Z,0.30
2022-08-09T00:35:09.870Z,0.30
2022-08-09T00:36:13.363Z,0.30
2022-08-09T00:37:16.191Z,0.30
2022-08-09T00:38:21.285Z,0.30
2022-08-09T00:40:12.189Z,0.30
2022-08-09T00:40:53.188Z,0.30
2022-08-09T00:44:13.799Z,0.30
2022-08-09T00:44:19.798Z,0.40
2022-08-09T00:44:40.563Z,0.30
2022-08-09T00:45:50.572Z,0.30
2022-08-09T00:47:01.742Z,0.30
2022-08-09T00:48:08.858Z,0.38
2022-08-09T00:49:18.438Z,0.40
2022-08-09T00:50:22.869Z,0.40
2022-08-09T00:51:26.368Z,0.30
2022-08-09T00:52:37.013Z,0.40
2022-08-09T00:53:40.781Z,0.40
2022-08-09T00:54:44.923Z,0.30
2022-08-09T00:56:05.368Z,0.30
2022-08-09T00:57:11.026Z,0.40
2022-08-09T00:58:14.810Z,0.32
2022-08-09T00:59:40.744Z,0.32
2022-08-09T01:00:51.282Z,0.40
2022-08-09T01:01:54.249Z,0.30
2022-08-09T01:03:06.098Z,0.40
2022-08-09T01:04:17.824Z,0.30
2022-08-09T01:05:53.331Z,0.40
2022-08-09T01:06:58.807Z,0.40
2022-08-09T01:08:06.796Z,0.40
2022-08-09T01:09:20.173Z,0.40
2022-08-09T01:10:34.236Z,0.40
2022-08-09T01:11:59.451Z,0.38
2022-08-09T01:13:08.310Z,0.30
2022-08-09T01:14:22.593Z,0.40
2022-08-09T01:15:31.358Z,0.38
2022-08-09T01:16:47.366Z,0.40
2022-08-09T01:17:56.714Z,0.40
2022-08-09T01:19:17.127Z,0.40
2022-08-09T01:20:42.215Z,0.40
2022-08-09T01:21:51.109Z,0.50
2022-08-09T01:23:12.473Z,0.40
2022-08-09T01:24:52.095Z,0.40
2022-08-09T01:27:11.425Z,0.40
2022-08-09T01:28:16.074Z,0.40
2022-08-09T01:29:23.213Z,0.40
2022-08-09T01:30:35.775Z,0.40
2022-08-09T01:32:31.852Z,0.50
2022-08-09T01:33:22.732Z,0.40
2022-08-09T01:34:27.331Z,0.40
2022-08-09T01:35:38.500Z,0.40
2022-08-09T01:36:42.316Z,0.40
2022-08-09T01:38:09.987Z,0.40
2022-08-09T01:39:10.253Z,0.40
2022-08-09T01:40:23.086Z,0.30
2022-08-09T01:41:33.880Z,0.50
2022-08-09T01:42:39.078Z,0.40
2022-08-09T01:43:50.578Z,0.30
2022-08-09T01:44:57.946Z,0.30
2022-08-09T01:46:03.460Z,0.30
2022-08-09T01:47:06.372Z,0.40
2022-08-09T01:48:16.632Z,0.40
2022-08-09T01:49:21.145Z,0.40
2022-08-09T01:50:37.033Z,0.40
2022-08-09T01:51:53.049Z,0.30
2022-08-09T01:52:58.925Z,0.40
2022-08-09T01:54:04.135Z,0.40
2022-08-09T01:55:09.579Z,0.40
2022-08-09T01:56:13.570Z,0.40
2022-08-09T01:57:20.471Z,0.40
2022-08-09T01:58:25.888Z,0.30
2022-08-09T01:59:33.405Z,0.40
2022-08-09T02:00:55.104Z,0.40
2022-08-09T02:02:01.176Z,0.30
2022-08-09T02:03:06.660Z,0.38
2022-08-09T02:04:11.007Z,0.40
2022-08-09T02:05:18.873Z,0.32
2022-08-09T02:06:45.569Z,0.35
2022-08-09T02:08:39.063Z,0.40
2022-08-09T02:09:27.398Z,0.38
2022-08-09T02:10:51.074Z,0.40
2022-08-09T02:11:54.621Z,0.40
2022-08-09T02:13:03.971Z,0.40
2022-08-09T02:14:10.670Z,0.40
2022-08-09T02:16:33.633Z,0.40
2022-08-09T02:18:09.846Z,0.40
2022-08-09T02:19:04.178Z,0.40
2022-08-09T02:20:12.183Z,0.50
2022-08-09T02:21:22.293Z,0.40
2022-08-09T02:22:38.137Z,0.50
2022-08-09T02:23:46.577Z,0.30
2022-08-09T02:24:54.621Z,0.30
2022-08-09T02:26:00.116Z,0.40
2022-08-09T02:27:07.764Z,0.40
2022-08-09T02:28:17.946Z,0.40
2022-08-09T02:29:27.506Z,0.40
2022-08-09T02:30:41.568Z,0.40
2022-08-09T02:32:51.058Z,0.40
2022-08-09T02:34:06.291Z,0.40
2022-08-09T02:35:26.078Z,0.50
2022-08-09T02:36:49.161Z,0.40
2022-08-09T02:38:01.003Z,0.40
2022-08-09T02:39:14.620Z,0.40
2022-08-09T02:40:30.312Z,0.40
2022-08-09T02:42:44.478Z,0.40
2022-08-09T02:43:55.559Z,0.40
2022-08-09T02:45:06.686Z,0.40
2022-08-09T02:46:13.546Z,0.40
2022-08-09T02:47:19.606Z,0.40
2022-08-09T02:48:31.200Z,0.40
2022-08-09T02:49:41.407Z,0.40
2022-08-09T02:50:51.897Z,0.40
2022-08-09T02:52:03.738Z,0.40
2022-08-09T02:53:17.330Z,0.40
2022-08-09T02:54:33.678Z,0.40
2022-08-09T02:55:46.898Z,0.40
2022-08-09T02:57:13.686Z,0.40
2022-08-09T02:58:35.783Z,0.40
2022-08-09T03:00:20.986Z,0.40
2022-08-09T03:01:15.145Z,0.40
2022-08-09T03:02:26.353Z,0.40
2022-08-09T03:04:16.514Z,0.40
2022-08-09T03:04:59.146Z,0.40
2022-08-09T03:06:07.295Z,0.30
2022-08-09T03:07:14.717Z,0.40
2022-08-09T03:08:19.354Z,0.40
2022-08-09T03:09:23.698Z,0.40
2022-08-09T03:10:28.837Z,0.40
2022-08-09T03:12:10.490Z,0.40
2022-08-09T03:12:57.682Z,0.32
2022-08-09T03:14:02.055Z,0.40
2022-08-09T03:15:06.860Z,0.30
2022-08-09T03:16:14.303Z,0.30
2022-08-09T03:17:26.344Z,0.30
2022-08-09T03:18:31.218Z,0.30
2022-08-09T03:19:52.436Z,0.30
2022-08-09T03:20:58.771Z,0.30
2022-08-09T03:22:03.375Z,0.30
2022-08-09T03:23:15.254Z,0.30
2022-08-09T03:24:42.036Z,0.30
2022-08-09T03:25:59.218Z,0.30
2022-08-09T03:27:10.747Z,0.30
2022-08-09T03:28:15.333Z,0.40
2022-08-09T03:29:23.055Z,0.40
2022-08-09T03:30:29.597Z,0.30
2022-08-09T03:31:42.646Z,0.30
2022-08-09T03:33:05.526Z,0.30
2022-08-09T03:34:15.200Z,0.30
2022-08-09T03:35:24.785Z,0.30
2022-08-09T03:36:41.915Z,0.30
2022-08-09T03:38:01.308Z,0.30
2022-08-09T03:39:04.476Z,0.30
2022-08-09T03:40:13.097Z,0.20
2022-08-09T03:41:18.380Z,0.32
2022-08-09T03:42:28.910Z,0.30
2022-08-09T03:43:34.262Z,0.30
2022-08-09T03:44:41.165Z,0.30
2022-08-09T03:46:05.449Z,0.30
2022-08-09T03:47:10.367Z,0.30
2022-08-09T03:48:19.014Z,0.30
2022-08-09T03:49:35.817Z,0.40
2022-08-09T03:50:41.905Z,0.40
2022-08-09T03:51:56.066Z,0.40
2022-08-09T03:53:05.743Z,0.40
2022-08-09T03:54:15.631Z,0.40
2022-08-09T03:55:19.356Z,0.40
2022-08-09T03:56:26.711Z,0.50
2022-08-09T03:57:31.910Z,0.40
2022-08-09T03:58:35.135Z,0.40
2022-08-09T03:59:43.080Z,0.40
2022-08-09T04:00:58.419Z,0.40
2022-08-09T04:02:07.661Z,0.40
2022-08-09T04:03:24.635Z,0.40
2022-08-09T04:04:40.040Z,0.30
2022-08-09T04:05:50.252Z,0.40
2022-08-09T04:06:55.757Z,0.40
2022-08-09T04:08:00.027Z,0.40
2022-08-09T04:09:11.703Z,0.40
2022-08-09T04:10:33.311Z,0.40
2022-08-09T04:12:05.211Z,0.40
2022-08-09T04:13:13.281Z,0.40
2022-08-09T04:14:53.981Z,0.50
2022-08-09T04:16:20.030Z,0.50
2022-08-09T04:17:08.311Z,0.50
2022-08-09T04:18:16.544Z,0.50
2022-08-09T04:19:42.677Z,0.40
2022-08-09T04:20:43.091Z,0.50
2022-08-09T04:21:46.535Z,0.50
2022-08-09T04:22:50.512Z,0.50
2022-08-09T04:23:54.214Z,0.50
2022-08-09T04:25:01.275Z,0.50
2022-08-09T04:26:04.967Z,0.50
2022-08-09T04:27:08.163Z,0.60
2022-08-09T04:28:12.478Z,0.55
2022-08-09T04:29:15.891Z,0.50
2022-08-09T04:30:20.851Z,0.50
2022-08-09T04:31:37.511Z,0.50
2022-08-09T04:32:48.830Z,0.50
2022-08-09T04:33:56.996Z,0.60
2022-08-09T04:35:01.640Z,0.50
2022-08-09T04:36:05.208Z,0.60
2022-08-09T04:37:09.396Z,0.60
2022-08-09T04:38:12.249Z,0.50
2022-08-09T04:39:14.243Z,0.50
2022-08-09T04:40:28.614Z,0.60
2022-08-09T04:41:43.573Z,0.60
2022-08-09T04:42:49.453Z,0.50
2022-08-09T04:44:05.931Z,0.60
2022-08-09T04:45:20.685Z,0.60
2022-08-09T04:46:56.867Z,0.50
2022-08-09T04:48:00.984Z,0.60
2022-08-09T04:49:06.241Z,0.60
2022-08-09T04:50:11.363Z,0.60
2022-08-09T04:51:13.404Z,0.60
2022-08-09T04:52:26.145Z,0.60
2022-08-09T04:54:31.868Z,0.60
2022-08-09T04:55:39.731Z,0.50
2022-08-09T04:56:43.607Z,0.60
2022-08-09T04:57:54.307Z,0.50
2022-08-09T04:59:03.782Z,0.60
2022-08-09T05:00:11.837Z,0.60
2022-08-09T05:01:16.066Z,0.60
2022-08-09T05:02:19.413Z,0.57
2022-08-09T05:03:40.798Z,0.60
2022-08-09T05:04:47.374Z,0.50
2022-08-09T05:05:52.639Z,0.60
2022-08-09T05:07:07.567Z,0.60
2022-08-09T05:08:21.055Z,0.60
2022-08-09T05:09:24.340Z,0.60
2022-08-09T05:10:27.193Z,0.60
2022-08-09T05:11:35.406Z,0.70
2022-08-09T05:12:37.955Z,0.60
2022-08-09T05:13:45.374Z,0.60
2022-08-09T05:14:47.283Z,0.60
2022-08-09T05:15:56.480Z,0.60
2022-08-09T05:16:59.985Z,0.53
2022-08-09T05:18:39.043Z,0.60
2022-08-09T05:19:25.993Z,0.60
2022-08-09T05:20:30.837Z,0.50
2022-08-09T05:21:46.633Z,0.60
2022-08-09T05:23:53.883Z,0.50
2022-08-09T05:24:16.234Z,0.52
2022-08-09T05:25:18.577Z,0.50
2022-08-09T05:26:33.904Z,0.50
2022-08-09T05:27:47.997Z,0.57
2022-08-09T05:28:50.178Z,0.50
2022-08-09T05:29:55.165Z,0.50
2022-08-09T05:30:57.036Z,0.50
2022-08-09T05:32:01.184Z,0.60
2022-08-09T05:33:03.173Z,0.50
2022-08-09T05:34:06.290Z,0.50
2022-08-09T05:35:18.639Z,0.60
2022-08-09T05:36:28.945Z,0.50
2022-08-09T05:37:31.155Z,0.50
2022-08-09T05:38:47.635Z,0.60
2022-08-09T05:39:51.111Z,0.60
2022-08-09T05:40:57.473Z,0.60
2022-08-09T05:42:01.768Z,0.60
2022-08-09T05:43:08.143Z,0.52
2022-08-09T05:44:11.058Z,0.60
2022-08-09T05:45:14.907Z,0.60
2022-08-09T05:46:16.940Z,0.50
2022-08-09T05:47:21.611Z,0.50
2022-08-09T05:48:27.808Z,0.50
2022-08-09T05:50:25.496Z,0.50
2022-08-09T05:51:16.610Z,0.50
2022-08-09T05:52:24.874Z,0.50
2022-08-09T05:53:33.292Z,0.50
2022-08-09T05:54:36.495Z,0.50
2022-08-09T05:55:42.139Z,0.50
2022-08-09T05:56:54.871Z,0.50
2022-08-09T05:57:59.659Z,0.50
2022-08-09T05:59:02.363Z,0.50
2022-08-09T06:00:07.738Z,0.50
2022-08-09T06:01:15.929Z,0.50
2022-08-09T06:02:18.636Z,0.50
2022-08-09T06:03:21.616Z,0.50
2022-08-09T06:04:24.158Z,0.50
2022-08-09T06:05:57.037Z,0.40
2022-08-09T06:07:00.889Z,0.50
2022-08-09T06:08:08.137Z,0.50
2022-08-09T06:09:40.798Z,0.50
2022-08-09T06:10:40.147Z,0.50
2022-08-09T06:11:56.838Z,0.50
2022-08-09T06:13:12.377Z,0.50
2022-08-09T06:14:22.091Z,0.40
2022-08-09T06:15:24.280Z,0.50
2022-08-09T06:16:29.611Z,0.50
2022-08-09T06:17:39.170Z,0.50
2022-08-09T06:18:43.787Z,0.50
2022-08-09T06:19:45.690Z,0.40
2022-08-09T06:20:49.969Z,0.40
2022-08-09T06:21:58.377Z,0.50
2022-08-09T06:23:01.964Z,0.40
2022-08-09T06:24:07.813Z,0.50
2022-08-09T06:25:12.320Z,0.50
2022-08-09T06:26:22.388Z,0.50
2022-08-09T06:27:24.544Z,0.50
2022-08-09T06:28:45.648Z,0.43
2022-08-09T06:30:04.512Z,0.40
2022-08-09T06:31:12.053Z,0.43
2022-08-09T06:32:53.264Z,0.40
2022-08-09T06:33:41.723Z,0.50
2022-08-09T06:34:46.503Z,0.50
2022-08-09T06:35:57.296Z,0.50
2022-08-09T06:38:05.398Z,0.50
2022-08-09T06:39:12.508Z,0.40
2022-08-09T06:40:21.922Z,0.50
2022-08-09T06:42:08.581Z,0.50
2022-08-09T06:42:52.287Z,0.40
2022-08-09T06:43:54.159Z,0.50
2022-08-09T06:44:58.522Z,0.40
2022-08-09T06:46:06.312Z,0.43
2022-08-09T06:47:11.183Z,0.40
2022-08-09T06:48:16.415Z,0.40
2022-08-09T06:49:29.088Z,0.40
2022-08-09T06:50:41.552Z,0.40
2022-08-09T06:51:43.448Z,0.50
2022-08-09T06:52:49.101Z,0.40
2022-08-09T06:53:51.164Z,0.50
2022-08-09T06:54:57.476Z,0.50
2022-08-09T06:56:02.978Z,0.50
2022-08-09T06:57:06.245Z,0.50
2022-08-09T06:58:40.526Z,0.40
2022-08-09T07:00:54.686Z,0.50
2022-08-09T07:00:58.658Z,0.43
2022-08-09T07:02:04.688Z,0.50
2022-08-09T07:03:07.968Z,0.50
2022-08-09T07:04:20.040Z,0.40
2022-08-09T07:05:23.236Z,0.40
2022-08-09T07:06:25.470Z,0.40
2022-08-09T07:08:00.721Z,0.50
2022-08-09T07:08:53.918Z,0.40
2022-08-09T07:10:14.209Z,0.50
2022-08-09T07:11:23.752Z,0.50
2022-08-09T07:12:38.103Z,0.50
2022-08-09T07:14:04.098Z,0.40
2022-08-09T07:16:34.874Z,0.50
2022-08-09T07:16:39.694Z,0.50
2022-08-09T07:17:56.029Z,0.40
2022-08-09T07:18:58.345Z,0.50
2022-08-09T07:20:01.179Z,0.50
2022-08-09T07:21:03.170Z,0.50
2022-08-09T07:22:10.971Z,0.40
2022-08-09T07:23:19.979Z,0.40
2022-08-09T07:24:32.603Z,0.40
2022-08-09T07:25:44.708Z,0.40
2022-08-09T07:26:46.603Z,0.40
2022-08-09T07:27:55.452Z,0.30
2022-08-09T07:29:08.257Z,0.40
2022-08-09T07:30:14.188Z,0.43
2022-08-09T07:31:16.076Z,0.40
2022-08-09T07:32:19.610Z,0.50
2022-08-09T07:33:25.040Z,0.40
2022-08-09T07:34:28.146Z,0.40
2022-08-09T07:35:30.342Z,0.40
2022-08-09T07:36:53.032Z,0.40
2022-08-09T07:37:59.406Z,0.40
2022-08-09T07:39:02.553Z,0.50
2022-08-09T07:40:07.027Z,0.40
2022-08-09T07:41:12.990Z,0.40
2022-08-09T07:42:15.216Z,0.50
2022-08-09T07:43:20.210Z,0.50
2022-08-09T07:44:33.049Z,0.50
2022-08-09T07:45:54.806Z,0.50
2022-08-09T07:47:06.189Z,0.40
2022-08-09T07:48:25.717Z,0.50
2022-08-09T07:49:33.659Z,0.50
2022-08-09T07:51:09.490Z,0.47
2022-08-09T07:52:18.364Z,0.40
2022-08-09T07:53:45.142Z,0.50
2022-08-09T07:54:45.342Z,0.40
2022-08-09T07:56:05.664Z,0.40
2022-08-09T07:57:11.598Z,0.50
2022-08-09T07:58:14.248Z,0.40
2022-08-09T07:59:34.682Z,0.40
2022-08-09T08:00:55.534Z,0.40
2022-08-09T08:01:58.837Z,0.40
2022-08-09T08:03:02.188Z,0.43
2022-08-09T08:04:10.456Z,0.45
2022-08-09T08:05:18.009Z,0.40
2022-08-09T08:06:21.899Z,0.40
2022-08-09T08:08:43.766Z,0.40
2022-08-09T08:09:03.643Z,0.50
2022-08-09T08:10:11.353Z,0.50
2022-08-09T08:12:10.259Z,0.50
2022-08-09T08:12:43.743Z,0.50
2022-08-09T08:13:56.605Z,0.50
2022-08-09T08:14:59.748Z,0.50
2022-08-09T08:16:02.812Z,0.40
2022-08-09T08:17:08.750Z,0.50
2022-08-09T08:18:16.460Z,0.52
2022-08-09T08:19:19.287Z,0.50
2022-08-09T08:20:30.494Z,0.50
2022-08-09T08:21:39.535Z,0.50
2022-08-09T08:22:41.841Z,0.50
2022-08-09T08:23:44.767Z,0.50
2022-08-09T08:24:58.717Z,0.50
2022-08-09T08:26:06.507Z,0.50
2022-08-09T08:27:16.483Z,0.40
2022-08-09T08:28:25.927Z,0.50
2022-08-09T08:29:39.600Z,0.50
2022-08-09T08:30:48.656Z,0.50
2022-08-09T08:32:03.562Z,0.40
2022-08-09T08:33:11.639Z,0.40
2022-08-09T08:34:14.743Z,0.40
2022-08-09T08:35:24.154Z,0.40
2022-08-09T08:36:34.294Z,0.50
2022-08-09T08:37:41.356Z,0.40
2022-08-09T08:40:00.680Z,0.50
2022-08-09T08:41:06.352Z,0.50
2022-08-09T08:42:09.670Z,0.50
2022-08-09T08:43:13.743Z,0.50
2022-08-09T08:44:27.134Z,0.40
2022-08-09T08:45:37.034Z,0.50
2022-08-09T08:46:59.359Z,0.50
2022-08-09T08:48:04.011Z,0.50
2022-08-09T08:49:07.996Z,0.50
2022-08-09T08:50:18.068Z,0.50
2022-08-09T08:51:21.379Z,0.50
2022-08-09T08:54:04.462Z,0.50
2022-08-09T08:55:08.622Z,0.40
2022-08-09T08:56:25.033Z,0.40
2022-08-09T08:57:30.993Z,0.40
2022-08-09T08:58:37.864Z,0.40
2022-08-09T08:59:49.143Z,0.40
2022-08-09T09:00:58.465Z,0.50
2022-08-09T09:02:01.890Z,0.50
2022-08-09T09:03:10.419Z,0.50
2022-08-09T09:05:57.682Z,0.50
2022-08-09T09:06:49.741Z,0.50
2022-08-09T09:07:53.002Z,0.47
2022-08-09T09:08:59.612Z,0.47
2022-08-09T09:10:09.026Z,0.50
2022-08-09T09:11:13.773Z,0.50
2022-08-09T09:12:23.055Z,0.47
2022-08-09T09:13:54.954Z,0.50
2022-08-09T09:15:02.068Z,0.40
2022-08-09T09:16:06.989Z,0.50
2022-08-09T09:17:10.666Z,0.50
2022-08-09T09:18:19.185Z,0.40
2022-08-09T09:19:36.758Z,0.40
2022-08-09T09:20:43.719Z,0.40
2022-08-09T09:22:05.440Z,0.50
2022-08-09T09:23:14.102Z,0.40
2022-08-09T09:24:21.469Z,0.50
2022-08-09T09:26:01.986Z,0.50
2022-08-09T09:27:00.507Z,0.50
2022-08-09T09:28:08.024Z,0.50
2022-08-09T09:29:17.205Z,0.50
2022-08-09T09:30:39.937Z,0.50
2022-08-09T09:32:07.078Z,0.40
2022-08-09T09:33:17.412Z,0.50
2022-08-09T09:34:21.276Z,0.50
2022-08-09T09:35:26.428Z,0.40
2022-08-09T09:36:52.865Z,0.40
2022-08-09T09:37:59.252Z,0.40
2022-08-09T09:39:02.713Z,0.40
2022-08-09T09:40:13.060Z,0.47
2022-08-09T09:41:48.971Z,0.50
2022-08-09T09:42:58.175Z,0.50
2022-08-09T09:44:12.055Z,0.50
2022-08-09T09:45:25.614Z,0.50
2022-08-09T09:46:43.474Z,0.50
2022-08-09T09:47:59.061Z,0.50
2022-08-09T09:49:05.238Z,0.50
2022-08-09T09:50:16.802Z,0.40
2022-08-09T09:51:38.215Z,0.40
2022-08-09T09:52:52.352Z,0.40
2022-08-09T09:54:20.477Z,0.40
2022-08-09T09:55:32.281Z,0.40
2022-08-09T09:58:01.261Z,0.38
2022-08-09T09:58:17.140Z,0.50
2022-08-09T09:59:35.409Z,0.40
2022-08-09T10:00:54.677Z,0.45
2022-08-09T10:02:04.324Z,0.40
2022-08-09T10:03:11.772Z,0.40
2022-08-09T10:04:23.119Z,0.40
2022-08-09T10:06:04.120Z,0.40
2022-08-09T10:07:03.600Z,0.32
2022-08-09T10:08:27.707Z,0.30
2022-08-09T10:09:54.879Z,0.40
2022-08-09T10:10:58.513Z,0.40
2022-08-09T10:12:14.635Z,0.40
2022-08-09T10:13:45.153Z,0.40
2022-08-09T10:14:51.521Z,0.40
2022-08-09T10:16:55.034Z,0.40
2022-08-09T10:17:50.681Z,0.40
2022-08-09T10:18:54.771Z,0.40
2022-08-09T10:19:58.871Z,0.40
2022-08-09T10:21:12.946Z,0.40
2022-08-09T10:22:18.381Z,0.40
2022-08-09T10:23:32.779Z,0.40
2022-08-09T10:24:40.320Z,0.43
2022-08-09T10:26:07.146Z,0.50
2022-08-09T10:27:10.339Z,0.40
2022-08-09T10:28:20.889Z,0.40
2022-08-09T10:30:11.725Z,0.40
2022-08-09T10:32:27.544Z,0.40
2022-08-09T10:32:37.980Z,0.40
2022-08-09T10:34:08.676Z,0.40
2022-08-09T10:34:59.658Z,0.40
2022-08-09T10:36:04.460Z,0.40
2022-08-09T10:37:09.772Z,0.38
2022-08-09T10:38:33.800Z,0.40
2022-08-09T10:39:40.710Z,0.40
2022-08-09T10:40:51.063Z,0.50
2022-08-09T10:41:54.853Z,0.40
2022-08-09T10:42:58.696Z,0.40
2022-08-09T10:44:02.419Z,0.38
2022-08-09T10:45:11.886Z,0.40
2022-08-09T10:46:55.777Z,0.40
2022-08-09T10:48:13.307Z,0.30
2022-08-09T10:49:51.089Z,0.30
2022-08-09T10:51:11.935Z,0.40
2022-08-09T10:52:38.098Z,0.50
2022-08-09T10:54:02.175Z,0.30
2022-08-09T10:55:21.183Z,0.40
2022-08-09T10:56:27.241Z,0.40
2022-08-09T10:57:37.531Z,0.40
2022-08-09T10:58:42.843Z,0.40
2022-08-09T10:59:58.194Z,0.40
2022-08-09T11:03:02.060Z,0.50
2022-08-09T11:03:13.436Z,0.40
2022-08-09T11:04:30.683Z,0.40
2022-08-09T11:05:35.535Z,0.40
2022-08-09T11:06:44.832Z,0.40
2022-08-09T11:07:58.307Z,0.45
2022-08-09T11:09:15.721Z,0.50
2022-08-09T11:10:56.478Z,0.50
2022-08-09T11:12:14.281Z,0.50
2022-08-09T11:13:50.219Z,0.50
2022-08-09T11:14:48.320Z,0.40
2022-08-09T11:16:04.395Z,0.50
2022-08-09T11:17:46.385Z,0.50
2022-08-09T11:18:56.498Z,0.50
2022-08-09T11:20:12.208Z,0.40
2022-08-09T11:21:55.191Z,0.40
2022-08-09T11:23:07.009Z,0.40
2022-08-09T11:24:13.662Z,0.43
2022-08-09T11:25:16.672Z,0.40
2022-08-09T11:26:40.735Z,0.40
2022-08-09T11:28:02.393Z,0.50
2022-08-09T11:29:09.515Z,0.47
2022-08-09T11:30:32.579Z,0.40
2022-08-09T11:31:49.466Z,0.40
2022-08-09T11:32:59.736Z,0.40
2022-08-09T11:34:10.182Z,0.30
2022-08-09T11:35:22.721Z,0.40
2022-08-09T11:36:42.614Z,0.40
2022-08-09T11:37:49.857Z,0.40
2022-08-09T11:39:04.870Z,0.30
2022-08-09T11:40:09.220Z,0.38
2022-08-09T11:41:38.263Z,0.40
2022-08-09T11:42:48.463Z,0.40
2022-08-09T11:43:52.690Z,0.50
2022-08-09T11:44:57.274Z,0.40
2022-08-09T11:46:01.118Z,0.40
2022-08-09T11:47:04.187Z,0.50
2022-08-09T11:50:56.529Z,0.40
2022-08-09T11:52:49.464Z,0.50
2022-08-09T11:53:59.066Z,0.40
2022-08-09T11:55:34.932Z,0.40
2022-08-09T11:56:54.769Z,0.45
2022-08-09T11:58:02.851Z,0.40
2022-08-09T11:59:09.691Z,0.40
2022-08-09T12:00:16.270Z,0.45
2022-08-09T12:02:00.921Z,0.40
2022-08-09T12:02:44.528Z,0.40
2022-08-09T12:04:00.430Z,0.32
2022-08-09T12:05:02.553Z,0.40
2022-08-09T12:06:13.652Z,0.40
2022-08-09T12:07:18.563Z,0.40
2022-08-09T12:08:22.427Z,0.40
2022-08-09T12:09:33.688Z,0.40
2022-08-09T12:10:40.106Z,0.30
2022-08-09T12:12:02.201Z,0.40
2022-08-09T12:14:07.452Z,0.40
2022-08-09T12:14:41.025Z,0.40
2022-08-09T12:16:00.113Z,0.40
2022-08-09T12:17:33.875Z,0.40
2022-08-09T12:18:33.581Z,0.50
2022-08-09T12:19:40.082Z,0.50
2022-08-09T12:20:43.666Z,0.50
2022-08-09T12:21:51.565Z,0.50
2022-08-09T12:22:57.935Z,0.43
2022-08-09T12:24:09.095Z,0.40
2022-08-09T12:25:15.511Z,0.40
2022-08-09T12:26:26.184Z,0.40
2022-08-09T12:28:59.954Z,0.50
2022-08-09T12:29:13.476Z,0.40
2022-08-09T12:30:35.378Z,0.40
2022-08-09T12:31:59.333Z,0.40
2022-08-09T12:33:03.253Z,0.40
2022-08-09T12:34:05.245Z,0.50
2022-08-09T12:35:12.286Z,0.40
2022-08-09T12:36:32.001Z,0.50
2022-08-09T12:37:49.693Z,0.40
2022-08-09T12:38:54.546Z,0.50
2022-08-09T12:40:02.175Z,0.40
2022-08-09T12:41:07.234Z,0.50
2022-08-09T12:42:16.715Z,0.50
2022-08-09T12:43:20.850Z,0.47
2022-08-09T12:44:46.282Z,0.40
2022-08-09T12:45:59.728Z,0.40
2022-08-09T12:47:04.900Z,0.40
2022-08-09T12:48:20.181Z,0.43
2022-08-09T12:49:33.983Z,0.40
2022-08-09T12:50:37.196Z,0.50
2022-08-09T12:52:00.806Z,0.40
2022-08-09T12:53:18.392Z,0.47
2022-08-09T12:54:21.910Z,0.50
2022-08-09T12:56:12.694Z,0.50
2022-08-09T12:56:54.330Z,0.40
2022-08-09T12:57:59.082Z,0.43
2022-08-09T12:59:07.794Z,0.50
2022-08-09T13:00:18.617Z,0.50
2022-08-09T13:01:26.678Z,0.40
2022-08-09T13:02:31.728Z,0.40
2022-08-09T13:03:54.086Z,0.40
2022-08-09T13:05:03.898Z,0.40
2022-08-09T13:06:14.609Z,0.40
2022-08-09T13:07:19.697Z,0.40
2022-08-09T13:08:39.657Z,0.40
2022-08-09T13:09:55.502Z,0.40
2022-08-09T13:12:19.686Z,0.47
2022-08-09T13:13:37.984Z,0.50
2022-08-09T13:14:47.672Z,0.40
2022-08-09T13:15:57.692Z,0.40
2022-08-09T13:17:01.911Z,0.40
2022-08-09T13:18:06.191Z,0.40
2022-08-09T13:19:13.747Z,0.30
2022-08-09T13:20:23.475Z,0.35
2022-08-09T13:23:00.419Z,0.35
2022-08-09T13:23:01.085Z,0.40
2022-08-09T13:24:44.608Z,0.35
2022-08-09T13:25:42.036Z,0.40
2022-08-09T13:26:50.122Z,0.40
2022-08-09T13:27:56.614Z,0.40
2022-08-09T13:29:06.332Z,0.30
2022-08-09T13:30:51.378Z,0.30
2022-08-09T13:32:15.154Z,0.50
2022-08-09T13:33:24.523Z,0.40
2022-08-09T13:34:28.499Z,0.40
2022-08-09T13:36:41.467Z,0.40
2022-08-09T13:36:58.421Z,0.40
2022-08-09T13:38:00.439Z,0.40
2022-08-09T13:41:17.423Z,0.32
2022-08-09T13:41:55.413Z,0.30
2022-08-09T13:42:00.370Z,0.40
2022-08-09T13:43:09.460Z,0.40
2022-08-09T13:44:13.770Z,0.30
2022-08-09T13:45:20.697Z,0.40
2022-08-09T13:47:16.375Z,0.40
2022-08-09T13:47:52.723Z,0.40
2022-08-09T13:49:00.276Z,0.40
2022-08-09T13:50:12.703Z,0.30
2022-08-09T13:51:21.299Z,0.40
2022-08-09T13:52:23.391Z,0.30
2022-08-09T13:53:39.572Z,0.30
2022-08-09T13:54:59.008Z,0.30
2022-08-09T13:56:03.293Z,0.30
2022-08-09T13:57:06.427Z,0.40
2022-08-09T13:58:11.691Z,0.32
2022-08-09T13:59:13.901Z,0.40
2022-08-09T14:00:21.801Z,0.40
2022-08-09T14:01:56.482Z,0.40
2022-08-09T14:03:16.558Z,0.40
2022-08-09T14:04:15.994Z,0.30
2022-08-09T14:05:58.645Z,0.30
2022-08-09T14:06:57.966Z,0.40
2022-08-09T14:08:04.318Z,0.30
2022-08-09T14:09:07.588Z,0.30
2022-08-09T14:10:17.489Z,0.40
2022-08-09T14:11:41.259Z,0.40
2022-08-09T14:12:50.893Z,0.40
2022-08-09T14:14:22.658Z,0.40
2022-08-09T14:16:09.555Z,0.40
2022-08-09T14:16:50.689Z,0.40
2022-08-09T14:18:06.537Z,0.30
2022-08-09T14:19:20.392Z,0.40
2022-08-09T14:20:25.960Z,0.40
2022-08-09T14:21:33.369Z,0.40
2022-08-09T14:22:36.747Z,0.40
2022-08-09T14:23:53.488Z,0.30
2022-08-09T14:24:58.872Z,0.40
2022-08-09T14:26:01.762Z,0.30
2022-08-09T14:27:19.886Z,0.40
2022-08-09T14:28:23.988Z,0.40
2022-08-09T14:30:35.441Z,0.40
2022-08-09T14:30:53.992Z,0.50
2022-08-09T14:31:56.329Z,0.40
2022-08-09T14:33:01.825Z,0.40
2022-08-09T14:34:13.316Z,0.40
2022-08-09T14:35:20.508Z,0.50
2022-08-09T14:36:24.796Z,0.40
2022-08-09T14:37:28.748Z,0.45
2022-08-09T14:38:53.058Z,0.40
2022-08-09T14:39:55.269Z,0.40
2022-08-09T14:41:04.203Z,0.30
2022-08-09T14:42:32.095Z,0.40
2022-08-09T14:43:47.607Z,0.40
2022-08-09T14:45:00.334Z,0.40
2022-08-09T14:46:54.053Z,0.50
2022-08-09T14:47:46.705Z,0.40
2022-08-09T14:48:49.597Z,0.40
2022-08-09T14:50:02.034Z,0.40
2022-08-09T14:51:05.326Z,0.40
2022-08-09T14:52:08.253Z,0.50
2022-08-09T14:53:12.322Z,0.40
2022-08-09T14:54:16.795Z,0.50
2022-08-09T14:55:25.464Z,0.40
2022-08-09T14:56:32.203Z,0.43
2022-08-09T14:57:43.054Z,0.40
2022-08-09T14:58:46.691Z,0.40
2022-08-09T14:59:48.941Z,0.40
2022-08-09T15:00:53.694Z,0.40
2022-08-09T15:02:01.222Z,0.40
2022-08-09T15:03:07.792Z,0.40
2022-08-09T15:04:10.881Z,0.30
2022-08-09T15:05:16.288Z,0.38
2022-08-09T15:06:20.718Z,0.30
2022-08-09T15:07:22.646Z,0.40
2022-08-09T15:08:26.330Z,0.40
2022-08-09T15:10:04.506Z,0.40
2022-08-09T15:11:00.513Z,0.40
2022-08-09T15:12:05.409Z,0.30
2022-08-09T15:13:10.450Z,0.40
2022-08-09T15:14:13.758Z,0.40
2022-08-09T15:15:20.971Z,0.30
2022-08-09T15:16:29.681Z,0.30
2022-08-09T15:17:32.570Z,0.35
2022-08-09T15:18:48.434Z,0.30
2022-08-09T15:19:59.109Z,0.40
2022-08-09T15:21:54.980Z,0.30
2022-08-09T15:22:26.384Z,0.30
2022-08-09T15:24:01.872Z,0.30
2022-08-09T15:24:51.321Z,0.30
2022-08-09T15:25:57.419Z,0.40
2022-08-09T15:26:59.695Z,0.30
2022-08-09T15:28:03.690Z,0.30
2022-08-09T15:30:56.163Z,0.30
2022-08-09T15:31:03.098Z,0.30
2022-08-09T15:32:29.764Z,0.30
2022-08-09T15:34:17.333Z,0.30
2022-08-09T15:34:55.616Z,0.30
2022-08-09T15:36:01.913Z,0.30
2022-08-09T15:37:36.988Z,0.30
2022-08-09T15:38:40.252Z,0.40
2022-08-09T15:39:53.325Z,0.30
2022-08-09T15:40:56.768Z,0.30
2022-08-09T15:41:58.618Z,0.30
2022-08-09T15:43:01.765Z,0.30
2022-08-09T15:44:05.192Z,0.40
2022-08-09T15:45:09.934Z,0.30
2022-08-09T15:46:32.263Z,0.40
2022-08-09T15:47:47.171Z,0.30
2022-08-09T15:50:18.988Z,0.30
2022-08-09T15:51:44.659Z,0.30
2022-08-09T15:52:54.744Z,0.40
2022-08-09T15:54:31.438Z,0.40
2022-08-09T15:55:34.482Z,0.40
2022-08-09T15:56:53.610Z,0.40
2022-08-09T15:57:56.569Z,0.40
2022-08-09T15:59:03.535Z,0.32
2022-08-09T16:00:14.063Z,0.40
2022-08-09T16:02:27.073Z,0.32
2022-08-09T16:03:38.665Z,0.30
2022-08-09T16:04:43.599Z,0.30
2022-08-09T16:05:53.515Z,0.40